ADDS METAR Data INFO
IDs: Format: Raw Decoded Include TAF

Data at: 1026 UTC 16 Aug 2018

METAR for:KVTA (Newark/Heath Arpt, OH, US)
Text:KVTA 160954Z AUTO 26005KT 7SM -RA FEW039 BKN085 OVC120 21/20 A3006 RMK AO2 LTG DSNT SW RAE0858B35 SLP172 P0000 T02060200
Temperature: 20.6°C ( 69°F)
Dewpoint: 20.0°C ( 68°F) [RH = 96%]
Pressure (altimeter):30.06 inches Hg (1018.0 mb) [Sea level pressure: 1017.2 mb]
Winds:from the W (260 degrees) at 6 MPH (5 knots; 2.6 m/s)
Visibility: 7 sm ( 11 km)
Ceiling:8500 feet AGL
Clouds: few clouds at 3900 feet AGL, broken clouds at 8500 feet AGL, overcast cloud deck at 12000 feet AGL
Weather:-RA (light rain)
QC Flag:automated observation with no human augmentation